地図

経路データ

SID SEASON NUMBER BASIN SUBBASIN NAME ISO_TIME NATURE LAT LON WMO_WIND WMO_PRES WMO_AGENCY TRACK_TYPE DIST2LAND LANDFALL IFLAG USA_AGENCY USA_ATCF_ID USA_LAT USA_LON USA_RECORD USA_STATUS USA_WIND USA_PRES USA_SSHS USA_R34_NE USA_R34_SE USA_R34_SW USA_R34_NW USA_R50_NE USA_R50_SE USA_R50_SW USA_R50_NW USA_R64_NE USA_R64_SE USA_R64_SW USA_R64_NW USA_POCI USA_ROCI USA_RMW USA_EYE TOKYO_LAT TOKYO_LON TOKYO_GRADE TOKYO_WIND TOKYO_PRES TOKYO_R50_DIR TOKYO_R50_LONG TOKYO_R50_SHORT TOKYO_R30_DIR TOKYO_R30_LONG TOKYO_R30_SHORT TOKYO_LAND CMA_LAT CMA_LON CMA_CAT CMA_WIND CMA_PRES HKO_LAT HKO_LON HKO_CAT HKO_WIND HKO_PRES NEWDELHI_LAT NEWDELHI_LON NEWDELHI_GRADE NEWDELHI_WIND NEWDELHI_PRES NEWDELHI_CI NEWDELHI_DP NEWDELHI_POCI REUNION_LAT REUNION_LON REUNION_TYPE REUNION_WIND REUNION_PRES REUNION_TNUM REUNION_CI REUNION_RMW REUNION_R34_NE REUNION_R34_SE REUNION_R34_SW REUNION_R34_NW REUNION_R50_NE REUNION_R50_SE REUNION_R50_SW REUNION_R50_NW REUNION_R64_NE REUNION_R64_SE REUNION_R64_SW REUNION_R64_NW BOM_LAT BOM_LON BOM_TYPE BOM_WIND BOM_PRES BOM_TNUM BOM_CI BOM_RMW BOM_R34_NE BOM_R34_SE BOM_R34_SW BOM_R34_NW BOM_R50_NE BOM_R50_SE BOM_R50_SW BOM_R50_NW BOM_R64_NE BOM_R64_SE BOM_R64_SW BOM_R64_NW BOM_ROCI BOM_POCI BOM_EYE BOM_POS_METHOD BOM_PRES_METHOD NADI_LAT NADI_LON NADI_CAT NADI_WIND NADI_PRES WELLINGTON_LAT WELLINGTON_LON WELLINGTON_WIND WELLINGTON_PRES DS824_LAT DS824_LON DS824_STAGE DS824_WIND DS824_PRES TD9636_LAT TD9636_LON TD9636_STAGE TD9636_WIND TD9636_PRES TD9635_LAT TD9635_LON TD9635_WIND TD9635_PRES TD9635_ROCI NEUMANN_LAT NEUMANN_LON NEUMANN_CLASS NEUMANN_WIND NEUMANN_PRES MLC_LAT MLC_LON MLC_CLASS MLC_WIND MLC_PRES USA_GUST BOM_GUST BOM_GUST_PER REUNION_GUST REUNION_GUST_PER USA_SEAHGT USA_SEARAD_NE USA_SEARAD_SE USA_SEARAD_SW USA_SEARAD_NW STORM_SPEED STORM_DIR
1967257N15247 1967 98 EP MM NANETTE 1967-09-13 12:00:00 TS 15.0000 -113.100 25 hurdat_epa main 941 938 O________OO___ hurdat_epa EP131967 15.0000 -113.100 TD 25 -1 15.0000 -113.100 TC 25 15.0000 -113.100 1 15 286
1967257N15247 1967 98 EP MM NANETTE 1967-09-13 15:00:00 TS 15.2119 -113.855 main 953 948 P________PP___ EP131967 15.2151 -113.822 TD 25 -1 15.2151 -113.822 TC 25 15.1991 -113.986 1 15 285
1967257N15247 1967 98 EP MM NANETTE 1967-09-13 18:00:00 TS 15.3954 -114.644 25 hurdat_epa main 967 967 O________OP___ hurdat_epa EP131967 15.4000 -114.600 TD 25 -1 15.4000 -114.600 TC 25 15.3768 -114.818 1 16 282
1967257N15247 1967 98 EP MM NANETTE 1967-09-13 21:00:00 TS 15.5275 -115.454 main 1009 1009 P________PP___ EP131967 15.5304 -115.433 TD 35 0 15.5304 -115.433 TC 35 15.5160 -115.541 1 14 278
1967257N15247 1967 98 EP MM NANETTE 1967-09-14 00:00:00 TS 15.6000 -116.100 45 hurdat_epa main 1037 1037 O________OO___ hurdat_epa EP131967 15.6000 -116.100 TS 45 0 15.6000 -116.100 TC 45 15.6000 -116.100 2 9 276
1967257N15247 1967 98 EP MM NANETTE 1967-09-14 03:00:00 TS 15.6216 -116.398 main 1057 1057 P________PP___ EP131967 15.6220 -116.383 TS 45 0 15.6220 -116.383 TC 45 15.6196 -116.459 2 4 270
1967257N15247 1967 98 EP MM NANETTE 1967-09-14 06:00:00 TS 15.5986 -116.533 45 hurdat_epa main 1063 1063 O________OP___ hurdat_epa EP131967 15.6000 -116.500 TS 45 0 15.6000 -116.500 TC 45 15.5931 -116.666 2 3 257
1967257N15247 1967 98 EP MM NANETTE 1967-09-14 09:00:00 TS 15.5490 -116.718 main 1085 1085 P________PP___ EP131967 15.5500 -116.700 TS 45 0 15.5500 -116.700 TC 45 15.5452 -116.790 2 4 254
1967257N15247 1967 98 EP MM NANETTE 1967-09-14 12:00:00 TS 15.5000 -116.900 45 hurdat_epa main 1099 1099 O________OO___ hurdat_epa EP131967 15.5000 -116.900 TS 45 0 15.5000 -116.900 TC 45 15.5000 -116.900 2 4 261
1967257N15247 1967 98 EP MM NANETTE 1967-09-14 15:00:00 TS 15.4933 -117.098 main 1113 1113 P________PP___ EP131967 15.4925 -117.100 TS 45 0 15.4925 -117.100 TC 45 15.4968 -117.092 2 4 270
1967257N15247 1967 98 EP MM NANETTE 1967-09-14 18:00:00 TS 15.5000 -117.297 45 hurdat_epa main 1127 1127 O________OP___ hurdat_epa EP131967 15.5000 -117.300 TS 45 0 15.5000 -117.300 TC 45 15.4998 -117.285 2 4 272
1967257N15247 1967 98 EP MM NANETTE 1967-09-14 21:00:00 TS 15.5066 -117.491 main 1142 1142 P________PP___ EP131967 15.5075 -117.492 TS 45 0 15.5075 -117.492 TC 45 15.5030 -117.486 2 4 270
1967257N15247 1967 98 EP MM NANETTE 1967-09-15 00:00:00 TS 15.5000 -117.700 45 hurdat_epa main 1156 1156 O________OO___ hurdat_epa EP131967 15.5000 -117.700 TS 45 0 15.5000 -117.700 TC 45 15.5000 -117.700 2 4 263
1967257N15247 1967 98 EP MM NANETTE 1967-09-15 03:00:00 TS 15.4540 -117.939 main 1171 1171 P________PP___ EP131967 15.4500 -117.943 TS 45 0 15.4500 -117.943 TC 45 15.4699 -117.924 2 5 259
1967257N15247 1967 98 EP MM NANETTE 1967-09-15 06:00:00 TS 15.4070 -118.193 45 hurdat_epa main 1201 1201 O________OP___ hurdat_epa EP131967 15.4000 -118.200 TS 45 0 15.4000 -118.200 TC 45 15.4348 -118.163 2 5 262
1967257N15247 1967 98 EP MM NANETTE 1967-09-15 09:00:00 TS 15.3894 -118.432 main 1216 1216 P________PP___ EP131967 15.3849 -118.435 TS 45 0 15.3849 -118.435 TC 45 15.4073 -118.420 2 5 269
1967257N15247 1967 98 EP MM NANETTE 1967-09-15 12:00:00 TS 15.4000 -118.700 45 hurdat_epa main 1239 1239 O________OO___ hurdat_epa EP131967 15.4000 -118.700 TS 45 0 15.4000 -118.700 TC 45 15.4000 -118.700 2 6 275
1967257N15247 1967 98 EP MM NANETTE 1967-09-15 15:00:00 TS 15.4405 -119.035 main 1263 1261 P________PP___ EP131967 15.4425 -119.042 TS 45 0 15.4425 -119.042 TC 45 15.4325 -119.003 2 7 278
1967257N15247 1967 98 EP MM NANETTE 1967-09-15 18:00:00 TS 15.4970 -119.385 45 hurdat_epa main 1279 1279 O________OP___ hurdat_epa EP131967 15.5000 -119.400 TS 45 0 15.5000 -119.400 TC 45 15.4850 -119.327 2 6 280
1967257N15247 1967 98 EP MM NANETTE 1967-09-15 21:00:00 TS 15.5549 -119.693 main 1289 1289 P________PP___ EP131967 15.5574 -119.700 TS 45 0 15.5574 -119.700 TC 45 15.5450 -119.663 2 6 280
1967257N15247 1967 98 EP MM NANETTE 1967-09-16 00:00:00 TS 15.6000 -120.000 45 hurdat_epa main 1309 1309 O________OO___ hurdat_epa EP131967 15.6000 -120.000 TS 45 0 15.6000 -120.000 TC 45 15.6000 -120.000 2 6 275
1967257N15247 1967 98 EP MM NANETTE 1967-09-16 03:00:00 TS 15.6048 -120.343 main 1328 1328 P________PP___ EP131967 15.6000 -120.350 TS 45 0 15.6000 -120.350 TC 45 15.6238 -120.317 2 7 271
1967257N15247 1967 98 EP MM NANETTE 1967-09-16 06:00:00 TS 15.6084 -120.687 45 hurdat_epa main 1356 1356 O________OP___ hurdat_epa EP131967 15.6000 -120.700 TS 45 0 15.6000 -120.700 TC 45 15.6422 -120.635 2 6 274
1967257N15247 1967 98 EP MM NANETTE 1967-09-16 09:00:00 TS 15.6468 -120.986 main 1376 1368 P________PP___ EP131967 15.6424 -120.993 TS 45 0 15.6424 -120.993 TC 45 15.6644 -120.961 2 6 279
1967257N15247 1967 98 EP MM NANETTE 1967-09-16 12:00:00 TS 15.7000 -121.300 45 hurdat_epa main 1389 1389 O________OO___ hurdat_epa EP131967 15.7000 -121.300 TS 45 0 15.7000 -121.300 TC 45 15.7000 -121.300 2 7 278
1967257N15247 1967 98 EP MM NANETTE 1967-09-16 15:00:00 TS 15.7453 -121.686 main 1418 1410 P________PP___ EP131967 15.7425 -121.693 TS 45 0 15.7425 -121.693 TC 45 15.7565 -121.661 2 8 278
1967257N15247 1967 98 EP MM NANETTE 1967-09-16 18:00:00 TS 15.8055 -122.087 45 hurdat_epa main 1440 1440 O________OP___ hurdat_epa EP131967 15.8000 -122.100 TS 45 0 15.8000 -122.100 TC 45 15.8274 -122.035 2 7 282
1967257N15247 1967 98 EP MM NANETTE 1967-09-16 21:00:00 TS 15.8958 -122.443 main 1455 1455 P________PP___ EP131967 15.8924 -122.450 TS 45 0 15.8924 -122.450 TC 45 15.9096 -122.417 2 7 286
1967257N15247 1967 98 EP MM NANETTE 1967-09-17 00:00:00 TS 16.0000 -122.800 45 hurdat_epa main 1478 1478 O________OO___ hurdat_epa EP131967 16.0000 -122.800 TS 45 0 16.0000 -122.800 TC 45 16.0000 -122.800 2 7 286
1967257N15247 1967 98 EP MM NANETTE 1967-09-17 03:00:00 TS 16.0961 -123.193 main 1501 1501 P________PP___ EP131967 16.1000 -123.200 TS 45 0 16.1000 -123.200 TC 45 16.0803 -123.167 2 8 284
1967257N15247 1967 98 EP MM NANETTE 1967-09-17 06:00:00 TS 16.1939 -123.587 45 hurdat_epa main 1526 1526 O________OP___ hurdat_epa EP131967 16.2000 -123.600 TS 45 0 16.2000 -123.600 TC 45 16.1696 -123.535 2 7 285
1967257N15247 1967 98 EP MM NANETTE 1967-09-17 09:00:00 TS 16.2887 -123.942 main 1543 1543 P________PP___ EP131967 16.2924 -123.950 TS 45 0 16.2924 -123.950 TC 45 16.2740 -123.911 2 7 287
1967257N15247 1967 98 EP MM NANETTE 1967-09-17 12:00:00 TS 16.4000 -124.300 45 hurdat_epa main 1569 1569 O________OO___ hurdat_epa EP131967 16.4000 -124.300 TS 45 0 16.4000 -124.300 TC 45 16.4000 -124.300 2 8 289
1967257N15247 1967 98 EP MM NANETTE 1967-09-17 15:00:00 TS 16.5378 -124.689 main 1596 1589 P________PP___ EP131967 16.5349 -124.685 TS 45 0 16.5349 -124.685 TC 45 16.5492 -124.707 2 8 291
1967257N15247 1967 98 EP MM NANETTE 1967-09-17 18:00:00 TS 16.7040 -125.106 45 hurdat_epa main 1608 1606 O________OP___ hurdat_epa EP131967 16.7000 -125.100 TS 45 0 16.7000 -125.100 TC 45 16.7197 -125.128 2 9 294
1967257N15247 1967 98 EP MM NANETTE 1967-09-17 21:00:00 TS 16.8950 -125.546 main 1618 1618 P________PP___ EP131967 16.8925 -125.543 TS 45 0 16.8925 -125.543 TC 45 16.9054 -125.560 2 9 295
1967257N15247 1967 98 EP MM NANETTE 1967-09-18 00:00:00 TS 17.1000 -126.000 45 hurdat_epa main 1635 1634 O________OO___ hurdat_epa EP131967 17.1000 -126.000 TS 45 0 17.1000 -126.000 TC 45 17.1000 -126.000 2 10 295
1967257N15247 1967 98 EP MM NANETTE 1967-09-18 03:00:00 TS 17.2928 -126.450 main 1647 1647 P________PP___ EP131967 17.2999 -126.450 TS 45 0 17.2999 -126.450 TC 45 17.2642 -126.448 2 9 294
1967257N15247 1967 98 EP MM NANETTE 1967-09-18 06:00:00 TS 17.4880 -126.900 45 hurdat_epa main 1668 1668 O________OP___ hurdat_epa EP131967 17.5000 -126.900 TS 45 0 17.5000 -126.900 TC 45 17.4398 -126.901 2 9 294
1967257N15247 1967 98 EP MM NANETTE 1967-09-18 09:00:00 TS 17.6770 -127.345 main 1683 1683 P________PP___ EP131967 17.6848 -127.343 TS 45 0 17.6848 -127.343 TC 45 17.6455 -127.354 2 10 296
1967257N15247 1967 98 EP MM NANETTE 1967-09-18 12:00:00 TS 17.9000 -127.800 45 hurdat_epa main 1706 1706 O________OO___ hurdat_epa EP131967 17.9000 -127.800 TS 45 0 17.9000 -127.800 TC 45 17.9000 -127.800 2 11 299
1967257N15247 1967 98 EP MM NANETTE 1967-09-18 15:00:00 TS 18.1824 -128.310 main 1724 1724 P________PP___ EP131967 18.1626 -128.315 TS 45 0 18.1626 -128.315 TC 45 18.2615 -128.288 2 11 304
1967257N15247 1967 98 EP MM NANETTE 1967-09-18 18:00:00 TS 18.5331 -128.792 45 hurdat_epa main 1743 1736 O________OP___ hurdat_epa EP131967 18.5000 -128.800 TS 45 0 18.5000 -128.800 TC 45 18.6655 -128.761 2 12 314
1967257N15247 1967 98 EP MM NANETTE 1967-09-18 21:00:00 TS 18.9903 -129.203 main 1742 1737 P________PP___ EP131967 18.9724 -129.210 TS 45 0 18.9724 -129.210 TC 45 19.0616 -129.178 2 11 322
1967257N15247 1967 98 EP MM NANETTE 1967-09-19 00:00:00 TS 19.4000 -129.500 45 hurdat_epa main 1742 1735 O________OO___ hurdat_epa EP131967 19.4000 -129.500 TS 45 0 19.4000 -129.500 TC 45 19.4000 -129.500 2 7 325
1967257N15247 1967 98 EP MM NANETTE 1967-09-19 03:00:00 TS 19.5995 -129.653 main 1746 1740 P________PP___ EP131967 19.5949 -129.645 TS 45 0 19.5949 -129.645 TC 45 19.6181 -129.685 2 4 328
1967257N15247 1967 98 EP MM NANETTE 1967-09-19 06:00:00 TS 19.7149 -129.714 45 hurdat_epa main 1740 1734 O________OP___ hurdat_epa EP131967 19.7000 -129.700 TS 45 0 19.7000 -129.700 TC 45 19.7743 -129.771 2 3 338
1967257N15247 1967 98 EP MM NANETTE 1967-09-19 09:00:00 TS 19.8647 -129.765 main 1736 1730 P________PP___ EP131967 19.8575 -129.758 TS 45 0 19.8575 -129.758 TC 45 19.8933 -129.797 2 3 344
1967257N15247 1967 98 EP MM NANETTE 1967-09-19 12:00:00 TS 20.0000 -129.800 45 hurdat_epa main 1730 1724 O________OO___ hurdat_epa EP131967 20.0000 -129.800 TS 45 0 20.0000 -129.800 TC 45 20.0000 -129.800 2 3 339
1967257N15247 1967 98 EP MM NANETTE 1967-09-19 15:00:00 TS 20.1064 -129.864 main 1733 1727 P________PP___ EP131967 20.1000 -129.858 TS 45 0 20.1000 -129.858 TC 45 20.1320 -129.892 2 2 333
1967257N15247 1967 98 EP MM NANETTE 1967-09-19 18:00:00 TS 20.2114 -129.912 45 hurdat_epa main 1727 1721 O________OP___ hurdat_epa EP131967 20.2000 -129.900 TS 45 0 20.2000 -129.900 TC 45 20.2572 -129.962 2 3 341
1967257N15247 1967 98 EP MM NANETTE 1967-09-19 21:00:00 TS 20.3437 -129.951 main 1730 1710 P________PP___ EP131967 20.3349 -129.945 TS 45 0 20.3349 -129.945 TC 45 20.3787 -129.976 2 3 0
1967257N15247 1967 98 EP MM NANETTE 1967-09-20 00:00:00 TS 20.5000 -129.900 45 hurdat_epa main 1710 1680 O________OO___ hurdat_epa EP131967 20.5000 -129.900 TS 45 0 20.5000 -129.900 TC 45 20.5000 -129.900 2 4 33
1967257N15247 1967 98 EP MM NANETTE 1967-09-20 03:00:00 TS 20.7019 -129.701 main 1680 1642 P________PP___ EP131967 20.7150 -129.703 TS 45 0 20.7150 -129.703 TC 45 20.6496 -129.694 2 6 51
1967257N15247 1967 98 EP MM NANETTE 1967-09-20 06:00:00 TS 20.8791 -129.400 45 hurdat_epa main 1642 1610 O________OP___ hurdat_epa EP131967 20.9000 -129.400 TS 45 0 20.9000 -129.400 TC 45 20.7954 -129.398 2 7 66
1967257N15247 1967 98 EP MM NANETTE 1967-09-20 09:00:00 TS 20.9677 -129.057 main 1610 1574 P________PP___ EP131967 20.9801 -129.057 TS 45 0 20.9801 -129.057 TC 45 20.9184 -129.053 2 7 80
1967257N15247 1967 98 EP MM NANETTE 1967-09-20 12:00:00 TS 21.0000 -128.700 45 hurdat_epa main 1574 1547 O________OO___ hurdat_epa EP131967 21.0000 -128.700 TS 45 0 21.0000 -128.700 TC 45 21.0000 -128.700 2 6 86
1967257N15247 1967 98 EP MM NANETTE 1967-09-20 15:00:00 TS 21.0163 -128.392 main 1547 1521 P________PP___ EP131967 21.0149 -128.393 TS 45 0 21.0149 -128.393 TC 45 21.0221 -128.392 2 6 90
1967257N15247 1967 98 EP MM NANETTE 1967-09-20 18:00:00 TS 21.0005 -128.097 45 hurdat_epa main 1521 1495 O________OP___ hurdat_epa EP131967 21.0000 -128.100 TS 45 0 21.0000 -128.100 TC 45 21.0024 -128.085 2 6 96
1967257N15247 1967 98 EP MM NANETTE 1967-09-20 21:00:00 TS 20.9573 -127.791 main 1495 1475 P________PP___ EP131967 20.9575 -127.792 TS 45 0 20.9575 -127.792 TC 45 20.9565 -127.785 2 6 100
1967257N15247 1967 98 EP MM NANETTE 1967-09-21 00:00:00 TS 20.9000 -127.500 45 hurdat_epa main 1475 1457 O________OO___ hurdat_epa EP131967 20.9000 -127.500 TS 45 0 20.9000 -127.500 TC 45 20.9000 -127.500 2 5 102
1967257N15247 1967 98 EP MM NANETTE 1967-09-21 03:00:00 TS 20.8491 -127.241 main 1455 1438 P________PP___ EP131967 20.8499 -127.243 TS 45 0 20.8499 -127.243 TC 45 20.8457 -127.233 2 5 102
1967257N15247 1967 98 EP MM NANETTE 1967-09-21 06:00:00 TS 20.7990 -126.996 45 hurdat_epa main 1438 1421 O________OP___ hurdat_epa EP131967 20.8000 -127.000 TS 45 0 20.8000 -127.000 TC 45 20.7952 -126.980 2 5 102
1967257N15247 1967 98 EP MM NANETTE 1967-09-21 09:00:00 TS 20.7495 -126.749 main 1419 1402 P________PP___ EP131967 20.7501 -126.752 TS 45 0 20.7501 -126.752 TC 45 20.7471 -126.738 2 5 102
1967257N15247 1967 98 EP MM NANETTE 1967-09-21 12:00:00 TS 20.7000 -126.500 45 hurdat_epa main 1402 O________OO___ hurdat_epa EP131967 20.7000 -126.500 TS 45 0 20.7000 -126.500 TC 45 20.7000 -126.500 2 5 102

IBTrACS Databaseについて

本データベースは、米国NOAAが公開する1842年以降の世界の熱帯低気圧のベストトラックデータアーカイブInternational Best Track Archive for Climate Stewardship (IBTrACS)を、ウェブで閲覧しやすい形式に変換したものです。

最終更新日:2021-12-03